Terminal Aerodrome Forecast
Issued by NWS

Home | Current Version | Previous Version | Text Only | Print | Product List | Glossary On
Versions: 1 2 3 4 5 6 7 8 9 10 11 12 13 14 15
000
FTUS41 KBTV 292325
TAFMPV
TAF
KMPV 292325Z 3000/3024 18010G17KT P6SM OVC070
     FM300200 18009KT 3SM -SHSN BR OVC035
     FM300400 18006KT 1SM -SN BR BKN025 OVC040
     FM301500 32008G15KT 2SM -SHSN BR OVC015=

USA.gov is the U.S. government's official web portal to all federal, state and local government web resources and services.